Time;durP1;ratioP1;P1;durP2;ratioP2;P2;SDS_P1;SDS_P2;PMS_P1;PMS_P2;Temp;Humidity;BMP_temperature;BMP_pressure;BME280_temperature;BME280_humidity;BME280_pressure;Samples;Min_cycle;Max_cycle;Signal;HPM_P1;HPM_P2
2023/05/05 00:01:42;;;;;;;7.10;3.90;;;;;;;14.67;61.19;100394.72;4458632;32;33874;-84
2023/05/05 00:04:09;;;;;;;7.28;4.20;;;;;;;14.54;62.15;100389.00;4463669;32;34095;-84
2023/05/05 00:06:37;;;;;;;7.05;4.00;;;;;;;14.21;64.24;100398.09;4460159;32;33315;-84
2023/05/05 00:09:05;;;;;;;9.00;4.00;;;;;;;14.12;63.68;100388.22;4456609;32;31985;-84
2023/05/05 00:11:33;;;;;;;7.20;4.47;;;;;;;14.33;62.89;100394.28;4465337;32;33915;-84
2023/05/05 00:14:00;;;;;;;7.85;4.00;;;;;;;14.42;63.67;100392.84;4455076;32;33499;-84
2023/05/05 00:16:28;;;;;;;7.05;4.10;;;;;;;14.12;64.39;100394.31;4460351;32;32346;-84
2023/05/05 00:18:56;;;;;;;7.15;3.70;;;;;;;13.85;65.15;100388.88;4462395;32;33653;-84
2023/05/05 00:21:24;;;;;;;7.65;4.32;;;;;;;13.52;66.89;100391.88;4455020;32;33857;-84
2023/05/05 00:23:51;;;;;;;7.68;3.95;;;;;;;13.73;67.80;100388.38;4441379;32;33932;-84
2023/05/05 00:26:20;;;;;;;6.87;3.95;;;;;;;13.70;64.70;100389.13;4462816;32;33836;-84
2023/05/05 00:28:48;;;;;;;7.20;3.90;;;;;;;13.86;65.47;100384.56;4458334;32;31970;-84
2023/05/05 00:31:15;;;;;;;6.73;4.03;;;;;;;13.89;65.08;100384.69;4460790;32;33299;-84
2023/05/05 00:33:43;;;;;;;7.62;4.00;;;;;;;13.87;64.35;100376.81;4454833;32;33641;-84
2023/05/05 00:36:11;;;;;;;7.62;3.83;;;;;;;13.98;63.49;100378.97;4462084;32;33184;-84
2023/05/05 00:38:38;;;;;;;7.20;4.00;;;;;;;13.80;63.65;100380.00;4459321;32;34480;-84
2023/05/05 00:41:06;;;;;;;6.37;3.95;;;;;;;13.86;63.96;100379.34;4449545;32;34679;-84
2023/05/05 00:43:33;;;;;;;7.97;4.05;;;;;;;13.96;63.91;100384.09;4451491;32;34105;-84
2023/05/05 00:46:05;;;;;;;8.80;3.85;;;;;;;13.78;64.64;100381.62;4464462;32;33349;-84
2023/05/05 00:48:33;;;;;;;6.72;3.64;;;;;;;13.92;64.16;100379.59;4457086;32;32734;-84
2023/05/05 00:51:00;;;;;;;8.80;3.75;;;;;;;13.44;65.33;100384.53;4458169;32;33541;-84
2023/05/05 00:53:28;;;;;;;7.32;4.07;;;;;;;13.50;64.16;100380.50;4463375;32;32361;-84
2023/05/05 00:55:56;;;;;;;9.93;4.40;;;;;;;13.08;66.09;100384.72;4463288;32;34088;-84
2023/05/05 00:58:24;;;;;;;7.65;4.32;;;;;;;13.23;66.24;100374.06;4457657;32;33310;-84
2023/05/05 01:00:51;;;;;;;6.78;4.40;;;;;;;13.37;66.38;100375.59;4459037;32;33482;-84
2023/05/05 01:03:19;;;;;;;7.07;4.30;;;;;;;12.92;67.70;100383.13;4463497;32;33573;-84
2023/05/05 01:06:14;;;;;;;8.05;4.50;;;;;;;12.52;68.91;100370.94;4463990;32;32152;-84
2023/05/05 01:09:08;;;;;;;7.20;4.40;;;;;;;12.30;69.65;100375.13;4459772;32;33843;-83
2023/05/05 01:12:01;;;;;;;8.13;4.40;;;;;;;12.48;69.53;100375.09;4453800;32;32751;-83
2023/05/05 01:14:40;;;;;;;7.12;3.60;;;;;;;12.77;68.11;100363.44;4466157;32;33099;-84
2023/05/05 01:17:16;;;;;;;6.65;4.15;;;;;;;12.96;66.30;100365.16;4457399;32;32626;-83
2023/05/05 01:20:25;;;;;;;7.85;4.18;;;;;;;13.33;64.95;100365.87;4443639;32;33821;-84
2023/05/05 01:22:59;;;;;;;9.00;4.25;;;;;;;13.27;64.72;100368.16;4452166;32;33164;-84
2023/05/05 01:25:42;;;;;;;7.30;3.90;;;;;;;13.22;64.86;100361.91;4454535;32;34026;-84
2023/05/05 01:28:23;;;;;;;6.27;3.73;;;;;;;13.07;65.42;100368.19;4463258;32;32221;-84
2023/05/05 01:31:12;;;;;;;7.20;4.18;;;;;;;13.41;64.29;100363.63;4456665;32;32885;-83
2023/05/05 01:33:45;;;;;;;6.30;4.00;;;;;;;13.03;65.33;100368.87;4464461;32;33246;-83
2023/05/05 01:36:21;;;;;;;8.07;4.55;;;;;;;12.88;66.02;100370.81;4457660;32;34036;-84
2023/05/05 01:38:55;;;;;;;7.37;4.32;;;;;;;12.44;68.29;100368.00;4457627;32;32158;-83
2023/05/05 01:41:27;;;;;;;7.22;4.16;;;;;;;12.44;68.99;100369.69;4443520;32;33349;-84
2023/05/05 01:43:56;;;;;;;7.80;4.12;;;;;;;12.87;67.76;100374.25;4444845;32;33381;-84
2023/05/05 01:46:24;;;;;;;8.48;4.45;;;;;;;12.35;69.14;100367.56;4459686;32;33762;-84
2023/05/05 01:48:52;;;;;;;7.25;4.40;;;;;;;12.33;68.87;100364.88;4459456;32;33614;-83
2023/05/05 01:51:22;;;;;;;7.90;4.28;;;;;;;12.29;69.72;100368.16;4453701;32;32348;-83
2023/05/05 01:53:56;;;;;;;8.13;4.55;;;;;;;12.32;70.14;100367.41;4463810;32;33371;-84
2023/05/05 01:56:24;;;;;;;6.70;4.43;;;;;;;13.00;67.74;100371.38;4458442;32;33344;-84
2023/05/05 01:58:52;;;;;;;8.25;4.40;;;;;;;12.64;69.08;100366.28;4457263;32;33368;-84
2023/05/05 02:01:25;;;;;;;8.23;4.62;;;;;;;12.66;68.80;100361.19;4458979;32;34764;-83
2023/05/05 02:03:57;;;;;;;7.05;4.57;;;;;;;12.68;69.03;100369.94;4443398;32;33146;-84
2023/05/05 02:06:27;;;;;;;8.43;4.62;;;;;;;12.81;68.77;100363.59;4457469;32;33108;-84
2023/05/05 02:08:57;;;;;;;9.02;4.50;;;;;;;12.81;69.05;100367.06;4456770;32;33676;-84
2023/05/05 02:11:25;;;;;;;8.20;4.75;;;;;;;12.85;69.13;100360.28;4445893;32;33341;-83
2023/05/05 02:13:53;;;;;;;8.18;4.78;;;;;;;12.77;69.37;100358.22;4441420;32;33576;-84
2023/05/05 02:16:21;;;;;;;9.20;4.95;;;;;;;12.55;69.88;100360.66;4460564;32;33665;-83
2023/05/05 02:18:49;;;;;;;8.52;4.80;;;;;;;12.27;70.99;100359.41;4454344;32;33509;-83
2023/05/05 02:21:17;;;;;;;7.68;4.72;;;;;;;12.21;71.51;100364.31;4450032;32;34657;-83
2023/05/05 02:23:50;;;;;;;7.70;4.50;;;;;;;12.00;72.31;100369.37;4450257;32;32695;-83
2023/05/05 02:26:20;;;;;;;7.60;5.05;;;;;;;11.69;73.48;100361.78;4456779;32;34281;-83
2023/05/05 02:29:06;;;;;;;8.13;4.65;;;;;;;12.07;72.32;100361.06;4458655;32;32180;-84
2023/05/05 02:31:38;;;;;;;6.87;4.43;;;;;;;11.91;72.81;100359.44;4447047;32;32920;-84
2023/05/05 02:34:07;;;;;;;7.40;4.70;;;;;;;12.02;72.70;100356.47;4434646;32;33105;-83
2023/05/05 02:36:37;;;;;;;8.68;4.78;;;;;;;12.18;71.96;100364.16;4461767;32;34028;-83
2023/05/05 02:39:16;;;;;;;8.38;4.78;;;;;;;12.28;71.37;100361.16;4454906;32;33544;-83
2023/05/05 02:41:46;;;;;;;8.75;4.78;;;;;;;12.44;71.07;100356.69;4455903;32;34087;-83
2023/05/05 02:44:15;;;;;;;9.63;5.30;;;;;;;12.26;71.77;100361.94;4440831;32;33629;-83
2023/05/05 02:46:44;;;;;;;9.05;4.97;;;;;;;11.90;73.16;100356.75;4464428;32;33668;-84
2023/05/05 02:49:11;;;;;;;10.10;5.10;;;;;;;12.09;72.67;100363.72;4455865;32;34050;-83
2023/05/05 02:51:39;;;;;;;11.27;5.55;;;;;;;11.86;73.16;100366.09;4463190;32;33441;-83
2023/05/05 02:54:07;;;;;;;10.55;5.45;;;;;;;11.81;73.50;100367.56;4456470;32;33932;-83
2023/05/05 02:56:39;;;;;;;8.90;5.53;;;;;;;11.83;73.58;100365.94;4453964;32;33123;-83
2023/05/05 02:59:30;;;;;;;8.80;5.28;;;;;;;11.50;74.88;100360.84;4446894;32;33906;-83
2023/05/05 03:02:15;;;;;;;9.05;5.10;;;;;;;12.03;73.00;100368.63;4441510;32;31902;-83
2023/05/05 03:05:05;;;;;;;9.45;5.15;;;;;;;11.62;74.16;100360.56;4445093;32;32697;-83
2023/05/05 03:07:39;;;;;;;10.55;5.80;;;;;;;11.28;75.43;100364.09;4450436;32;32735;-83
2023/05/05 03:10:09;;;;;;;9.77;5.10;;;;;;;11.24;75.92;100358.66;4461407;32;32934;-83
2023/05/05 03:12:50;;;;;;;8.63;5.50;;;;;;;11.42;75.06;100367.38;4436478;32;33654;-83
2023/05/05 03:15:21;;;;;;;10.27;5.72;;;;;;;11.31;76.01;100363.34;4460369;32;33084;-83
2023/05/05 03:17:50;;;;;;;9.27;5.25;;;;;;;11.03;77.35;100372.31;4449807;32;33418;-83
2023/05/05 03:20:21;;;;;;;8.95;5.60;;;;;;;11.26;76.64;100365.72;4457353;32;33090;-83
2023/05/05 03:22:49;;;;;;;10.20;5.30;;;;;;;11.52;75.38;100364.41;4454218;32;34401;-83
2023/05/05 03:25:17;;;;;;;9.43;5.43;;;;;;;11.71;74.57;100354.97;4449535;32;33626;-83
2023/05/05 03:27:45;;;;;;;10.03;5.40;;;;;;;11.72;74.14;100354.12;4452731;32;34507;-83
2023/05/05 03:30:14;;;;;;;8.75;5.40;;;;;;;11.51;74.80;100365.25;4457646;32;33467;-84
2023/05/05 03:32:43;;;;;;;9.10;5.57;;;;;;;11.42;75.36;100362.19;4461230;32;34791;-83
2023/05/05 03:35:10;;;;;;;8.77;5.20;;;;;;;11.19;76.09;100369.69;4455217;32;33824;-83
2023/05/05 03:37:38;;;;;;;9.85;5.32;;;;;;;10.84;77.16;100372.16;4462197;32;32752;-83
2023/05/05 03:40:06;;;;;;;8.57;5.18;;;;;;;10.74;78.13;100373.34;4451505;32;33230;-83
2023/05/05 03:42:34;;;;;;;8.50;5.25;;;;;;;10.61;78.67;100375.28;4437536;32;33303;-83
2023/05/05 03:45:02;;;;;;;8.45;5.28;;;;;;;10.58;78.08;100366.44;4444571;32;34115;-83
2023/05/05 03:47:30;;;;;;;8.60;5.10;;;;;;;10.94;76.18;100366.63;4451706;32;34230;-84
2023/05/05 03:49:59;;;;;;;8.65;5.12;;;;;;;11.41;74.01;100360.38;4455200;32;33852;-83
2023/05/05 03:52:27;;;;;;;9.23;5.10;;;;;;;11.58;73.54;100369.91;4450816;32;32097;-83
2023/05/05 03:54:55;;;;;;;7.65;5.07;;;;;;;11.73;72.94;100374.09;4450756;32;33783;-84
2023/05/05 03:57:22;;;;;;;10.25;5.70;;;;;;;11.60;73.29;100372.59;4450999;32;33455;-83
2023/05/05 03:59:50;;;;;;;10.05;5.85;;;;;;;11.37;74.40;100377.50;4448462;32;33643;-83
2023/05/05 04:02:18;;;;;;;11.10;6.20;;;;;;;11.36;74.15;100378.31;4451195;32;33762;-84
2023/05/05 04:04:45;;;;;;;11.30;5.82;;;;;;;11.02;76.45;100388.66;4451953;32;34268;-84
2023/05/05 04:07:13;;;;;;;8.85;5.72;;;;;;;10.69;78.19;100391.25;4448136;32;33901;-84
2023/05/05 04:09:43;;;;;;;10.32;5.87;;;;;;;10.66;77.97;100391.06;4451882;32;33629;-84
2023/05/05 04:12:11;;;;;;;8.35;5.72;;;;;;;10.97;77.36;100392.69;4450869;32;33597;-83
2023/05/05 04:14:39;;;;;;;11.15;6.47;;;;;;;11.01;76.54;100389.50;4450462;32;33764;-83
2023/05/05 04:17:07;;;;;;;9.57;6.05;;;;;;;11.54;75.38;100387.84;4451295;32;33575;-84
2023/05/05 04:19:35;;;;;;;10.93;5.87;;;;;;;11.87;73.15;100378.22;4454000;32;32980;-84
2023/05/05 04:22:03;;;;;;;10.13;5.70;;;;;;;11.12;76.35;100387.44;4451406;32;34459;-84
2023/05/05 04:24:30;;;;;;;10.30;5.57;;;;;;;10.94;76.96;100389.97;4453254;32;34466;-84
2023/05/05 04:26:59;;;;;;;9.50;5.50;;;;;;;11.01;77.03;100389.50;4453422;32;34718;-83
2023/05/05 04:29:27;;;;;;;9.17;5.73;;;;;;;12.02;73.25;100378.12;4454503;32;34104;-84
2023/05/05 04:31:55;;;;;;;9.30;5.50;;;;;;;12.90;69.27;100387.38;4454730;32;34288;-84
2023/05/05 04:34:23;;;;;;;8.40;5.15;;;;;;;13.10;68.40;100383.06;4452905;32;34703;-84
2023/05/05 04:36:51;;;;;;;8.53;5.60;;;;;;;12.73;69.33;100391.84;4459884;32;33237;-84
2023/05/05 04:39:19;;;;;;;9.48;5.03;;;;;;;12.23;71.39;100393.84;4450846;32;33099;-84
2023/05/05 04:41:47;;;;;;;9.57;5.40;;;;;;;13.15;68.12;100392.84;4454202;32;33075;-84
2023/05/05 04:44:14;;;;;;;7.62;5.43;;;;;;;12.23;70.88;100391.25;4449163;32;33447;-84
2023/05/05 04:46:42;;;;;;;11.17;5.50;;;;;;;11.67;73.79;100394.56;4430905;32;34591;-86
2023/05/05 04:49:10;;;;;;;9.93;5.85;;;;;;;11.72;74.01;100393.06;4449369;32;33314;-85
2023/05/05 04:51:41;;;;;;;10.30;5.50;;;;;;;11.59;74.80;100402.84;4454019;32;33909;-83
2023/05/05 04:54:08;;;;;;;8.53;5.43;;;;;;;11.62;75.42;100407.28;4450764;32;34244;-84
2023/05/05 04:56:36;;;;;;;8.10;5.10;;;;;;;12.85;70.99;100407.97;4449778;32;33853;-85
2023/05/05 04:59:03;;;;;;;8.20;4.70;;;;;;;13.52;68.39;100403.97;4445201;32;33950;-84
2023/05/05 05:01:31;;;;;;;11.40;5.33;;;;;;;13.71;67.65;100408.25;4448433;32;32801;-85
2023/05/05 05:03:59;;;;;;;9.38;5.45;;;;;;;13.90;66.77;100396.87;4449125;32;33848;-84
2023/05/05 05:06:28;;;;;;;10.68;5.45;;;;;;;13.71;67.36;100405.63;4459015;32;34054;-85
2023/05/05 05:08:55;;;;;;;11.02;5.37;;;;;;;13.32;68.46;100405.72;4443100;32;31531;-84
2023/05/05 05:11:23;;;;;;;10.05;5.32;;;;;;;13.53;67.79;100401.44;4449351;32;32871;-84
2023/05/05 05:13:51;;;;;;;9.10;5.50;;;;;;;12.73;70.19;100410.91;4442965;32;34001;-85
2023/05/05 05:16:20;;;;;;;9.00;5.20;;;;;;;13.47;67.61;100416.78;4446530;32;34460;-84
2023/05/05 05:18:48;;;;;;;8.55;4.97;;;;;;;12.96;69.11;100411.03;4449831;32;34047;-86
2023/05/05 05:21:16;;;;;;;7.85;5.05;;;;;;;13.47;67.86;100411.59;4458884;32;32345;-84
2023/05/05 05:23:43;;;;;;;9.10;5.25;;;;;;;13.84;66.39;100412.25;4443873;32;34609;-86
2023/05/05 05:26:11;;;;;;;9.85;5.20;;;;;;;14.36;64.02;100403.94;4462798;32;34425;-83
2023/05/05 05:28:40;;;;;;;8.68;5.30;;;;;;;13.68;65.88;100414.22;4446794;32;33228;-83
2023/05/05 05:31:08;;;;;;;8.35;5.22;;;;;;;13.23;67.41;100415.69;4446399;32;33468;-84
2023/05/05 05:33:36;;;;;;;10.32;5.07;;;;;;;14.14;65.19;100412.63;4445947;32;34604;-83
2023/05/05 05:36:04;;;;;;;9.95;5.28;;;;;;;14.78;63.36;100418.59;4449710;32;33806;-84
2023/05/05 05:38:31;;;;;;;8.60;5.10;;;;;;;14.65;64.12;100417.22;4458492;32;33857;-83
2023/05/05 05:41:04;;;;;;;9.07;4.47;;;;;;;14.63;63.70;100424.09;4446897;32;33773;-86
2023/05/05 05:43:32;;;;;;;8.43;4.90;;;;;;;14.89;61.00;100427.69;4455637;32;33359;-86
2023/05/05 05:46:00;;;;;;;8.70;4.70;;;;;;;14.96;61.13;100432.31;4463991;32;33601;-84
2023/05/05 05:48:28;;;;;;;7.50;4.50;;;;;;;15.40;60.51;100425.19;4453167;32;33244;-84
2023/05/05 05:50:56;;;;;;;7.75;4.60;;;;;;;15.69;59.25;100425.31;4461659;32;34908;-87
2023/05/05 05:53:24;;;;;;;7.82;4.20;;;;;;;15.49;60.11;100422.00;4465384;32;34021;-83
2023/05/05 05:55:52;;;;;;;9.18;4.32;;;;;;;15.61;59.21;100424.19;4423024;32;33051;-86
2023/05/05 05:58:19;;;;;;;7.43;4.43;;;;;;;15.78;58.59;100425.69;4451202;32;34324;-84
2023/05/05 06:00:47;;;;;;;7.07;4.32;;;;;;;16.29;56.59;100424.72;4464712;32;34384;-84
2023/05/05 06:03:16;;;;;;;7.60;4.30;;;;;;;16.23;56.63;100420.16;4454778;32;34330;-87
2023/05/05 06:05:45;;;;;;;9.80;4.40;;;;;;;15.73;57.23;100422.91;4453007;32;35065;-86
2023/05/05 06:08:13;;;;;;;8.40;4.50;;;;;;;16.23;56.59;100414.94;4462273;32;33352;-85
2023/05/05 06:10:41;;;;;;;8.07;4.35;;;;;;;15.98;56.46;100415.00;4444870;32;33910;-85
2023/05/05 06:13:09;;;;;;;7.43;4.10;;;;;;;16.35;55.75;100410.94;4442591;32;33570;-86
2023/05/05 06:15:37;;;;;;;8.70;4.53;;;;;;;16.12;55.67;100411.09;4463385;32;33763;-86
2023/05/05 06:18:05;;;;;;;8.55;4.40;;;;;;;16.43;54.32;100412.06;4456396;32;32988;-87
2023/05/05 06:20:33;;;;;;;8.40;4.22;;;;;;;16.55;53.70;100417.66;4458628;32;32438;-87
2023/05/05 06:23:00;;;;;;;8.07;4.30;;;;;;;16.71;53.59;100414.66;4462327;32;33993;-87
2023/05/05 06:25:29;;;;;;;8.98;4.22;;;;;;;17.06;53.19;100419.19;4454550;32;33707;-84
2023/05/05 06:27:57;;;;;;;8.77;4.12;;;;;;;17.15;52.98;100418.56;4464137;32;34222;-84
2023/05/05 06:30:27;;;;;;;8.53;4.23;;;;;;;17.11;52.19;100420.19;4452703;32;33887;-86
2023/05/05 06:32:55;;;;;;;10.35;4.60;;;;;;;16.65;53.50;100403.13;4453583;32;34284;-84
2023/05/05 06:35:23;;;;;;;8.52;4.72;;;;;;;16.84;52.81;100402.87;4464034;32;33499;-86
2023/05/05 06:37:50;;;;;;;11.02;4.57;;;;;;;17.14;52.11;100401.97;4448428;32;33474;-85
2023/05/05 06:40:18;;;;;;;8.85;4.60;;;;;;;16.94;53.32;100400.50;4459879;32;33022;-84
2023/05/05 06:42:46;;;;;;;6.97;4.43;;;;;;;16.83;54.12;100403.72;4450126;32;33464;-85
2023/05/05 06:45:14;;;;;;;8.63;4.68;;;;;;;17.81;51.40;100400.25;4449351;32;34113;-86
2023/05/05 06:47:43;;;;;;;9.13;4.90;;;;;;;17.75;50.44;100405.34;4450992;32;33327;-86
2023/05/05 06:50:11;;;;;;;9.20;4.63;;;;;;;17.37;51.02;100401.72;4460984;32;33692;-86
2023/05/05 06:52:38;;;;;;;9.80;4.77;;;;;;;17.85;50.46;100406.47;4452188;32;33827;-88
2023/05/05 06:55:06;;;;;;;10.37;4.70;;;;;;;18.00;50.57;100400.72;4462592;32;34289;-89
2023/05/05 06:57:34;;;;;;;8.02;4.80;;;;;;;18.02;49.41;100406.87;4449544;32;33548;-88
2023/05/05 07:00:04;;;;;;;9.55;4.37;;;;;;;18.03;49.57;100404.28;4455649;32;34444;-88
2023/05/05 07:02:32;;;;;;;9.25;4.30;;;;;;;18.25;48.57;100403.09;4459663;32;32991;-89
2023/05/05 07:05:00;;;;;;;8.65;4.10;;;;;;;18.92;46.70;100400.19;4452609;32;33706;-88
2023/05/05 07:07:30;;;;;;;9.73;4.82;;;;;;;20.13;44.65;100396.25;4454761;32;33163;-88
2023/05/05 07:09:58;;;;;;;9.55;4.32;;;;;;;20.77;43.21;100400.69;4461930;32;33675;-88
2023/05/05 07:12:28;;;;;;;7.85;3.92;;;;;;;21.45;42.67;100398.84;4457512;32;33432;-88
2023/05/05 07:14:56;;;;;;;8.70;4.18;;;;;;;21.83;40.55;100398.31;4454271;32;33889;-89
2023/05/05 07:17:23;;;;;;;9.75;4.50;;;;;;;21.63;40.62;100396.37;4456941;32;33378;-88
2023/05/05 07:19:53;;;;;;;8.27;4.05;;;;;;;22.21;39.22;100400.34;4438396;32;34741;-88
2023/05/05 07:22:21;;;;;;;7.82;4.18;;;;;;;22.41;39.41;100398.78;4446472;32;34649;-88
2023/05/05 07:24:49;;;;;;;7.90;4.00;;;;;;;22.51;38.71;100400.59;4462582;32;34573;-88
2023/05/05 07:27:19;;;;;;;9.05;4.40;;;;;;;22.40;39.22;100391.72;4449562;32;33159;-88
2023/05/05 07:29:46;;;;;;;8.23;3.87;;;;;;;22.69;38.85;100399.78;4452156;32;34229;-90
2023/05/05 07:32:14;;;;;;;7.65;4.35;;;;;;;23.80;37.29;100388.66;4461450;32;33752;-90
2023/05/05 07:34:41;;;;;;;7.62;4.28;;;;;;;24.32;34.23;100393.94;4457167;32;34783;-89
2023/05/05 07:37:09;;;;;;;6.70;4.10;;;;;;;25.38;32.96;100390.00;4455599;32;33510;-88
2023/05/05 07:39:37;;;;;;;9.57;4.07;;;;;;;26.34;31.55;100390.97;4447591;32;33756;-88
2023/05/05 07:42:06;;;;;;;7.15;4.22;;;;;;;27.72;29.26;100387.41;4462287;32;35223;-88
2023/05/05 07:44:33;;;;;;;8.52;4.50;;;;;;;27.88;29.49;100391.62;4462926;32;33783;-89
2023/05/05 07:47:01;;;;;;;7.87;4.18;;;;;;;26.67;30.42;100383.56;4456920;32;32838;-89
2023/05/05 07:49:28;;;;;;;6.97;3.80;;;;;;;27.04;30.35;100388.41;4451615;32;33906;-88
2023/05/05 07:51:56;;;;;;;7.78;3.67;;;;;;;28.63;28.99;100384.06;4463687;32;32265;-88
2023/05/05 07:54:23;;;;;;;6.82;4.10;;;;;;;28.93;27.37;100382.50;4452619;32;33802;-88
2023/05/05 07:56:51;;;;;;;7.15;3.83;;;;;;;27.97;29.09;100387.91;4460968;32;33335;-87
2023/05/05 07:59:19;;;;;;;8.77;4.60;;;;;;;29.75;27.54;100373.56;4456382;32;33877;-88
2023/05/05 08:01:46;;;;;;;8.02;4.10;;;;;;;29.31;27.00;100385.28;4465857;32;33530;-88
2023/05/05 08:04:14;;;;;;;8.48;4.10;;;;;;;29.70;27.22;100385.25;4458161;32;33836;-88
2023/05/05 08:06:42;;;;;;;5.75;3.72;;;;;;;30.50;25.10;100388.53;4467810;32;33821;-88
2023/05/05 08:09:09;;;;;;;6.65;3.42;;;;;;;30.17;25.67;100388.50;4457255;32;33604;-88
2023/05/05 08:11:38;;;;;;;7.15;3.92;;;;;;;30.68;25.20;100382.66;4465324;32;34495;-88
2023/05/05 08:14:06;;;;;;;7.37;3.75;;;;;;;29.83;26.09;100378.72;4456004;32;33325;-88
2023/05/05 08:16:34;;;;;;;7.47;4.30;;;;;;;31.72;23.63;100377.72;4461507;32;33908;-89
2023/05/05 08:19:02;;;;;;;8.50;4.47;;;;;;;30.71;24.48;100377.25;4456090;32;33909;-87
2023/05/05 08:21:36;;;;;;;9.10;4.12;;;;;;;30.08;24.48;100375.41;4455355;32;33325;-88
2023/05/05 08:24:03;;;;;;;8.90;4.35;;;;;;;29.12;27.11;100375.03;4458256;32;35062;-88
2023/05/05 08:26:31;;;;;;;8.10;3.65;;;;;;;28.92;27.77;100374.56;4455476;32;33618;-88
2023/05/05 08:28:59;;;;;;;10.68;4.10;;;;;;;29.91;26.72;100368.69;4456329;32;35019;-89
2023/05/05 08:31:31;;;;;;;5.95;3.92;;;;;;;29.59;26.47;100373.03;4454039;32;35290;-87
2023/05/05 08:33:59;;;;;;;9.27;4.75;;;;;;;29.86;25.69;100365.25;4453257;32;33515;-89
2023/05/05 08:36:27;;;;;;;8.10;4.35;;;;;;;27.15;29.06;100373.19;4460617;32;32927;-88
2023/05/05 08:38:55;;;;;;;;;;;;;;;27.13;29.74;100372.31;4466565;32;33089;-88
2023/05/05 08:41:22;;;;;;;;;;;;;;;26.62;30.19;100380.09;4457598;32;33955;-88
2023/05/05 08:43:51;;;;;;;;;;;;;;;28.00;29.12;100374.56;4456987;32;35341;-85
2023/05/05 08:46:18;;;;;;;;;;;;;;;27.74;28.71;100381.19;4462903;32;34312;-84
2023/05/05 08:48:46;;;;;;;;;;;;;;;25.67;31.49;100374.78;4460406;32;33186;-85
2023/05/05 08:51:20;;;;;;;;;;;;;;;26.26;32.13;100379.56;4452767;32;33995;-84
2023/05/05 08:53:57;;;;;;;;;;;;;;;26.53;32.67;100374.84;4464128;32;34318;-85
2023/05/05 08:56:26;;;;;;;;;;;;;;;25.02;33.29;100376.94;4439060;32;33012;-85
2023/05/05 08:58:53;;;;;;;;;;;;;;;24.07;37.95;100372.78;4457949;32;33768;-85
2023/05/05 09:01:21;;;;;;;;;;;;;;;22.43;37.71;100389.09;4450145;32;34804;-85
2023/05/05 09:03:49;;;;;;;;;;;;;;;22.03;39.82;100380.88;4455484;32;32657;-84
2023/05/05 09:06:19;;;;;;;;;;;;;;;21.83;39.96;100371.94;4445072;32;34188;-85
2023/05/05 09:08:46;;;;;;;;;;;;;;;24.14;36.86;100368.34;4446269;32;34534;-84
2023/05/05 09:11:13;;;;;;;;;;;;;;;23.82;38.48;100369.28;4448515;32;35166;-84
2023/05/05 09:13:42;;;;;;;;;;;;;;;24.33;36.38;100366.56;4453882;32;33770;-84
2023/05/05 09:16:27;;;;;;;;;;;;;;;23.41;36.94;100363.94;4454141;32;32850;-84
2023/05/05 09:19:02;;;;;;;;;;;;;;;23.75;38.74;100360.41;4448422;32;34299;-84
2023/05/05 09:21:29;;;;;;;;;;;;;;;23.99;35.69;100366.63;4452406;32;33627;-84
2023/05/05 09:24:09;;;;;;;;;;;;;;;24.08;34.71;100358.66;4450498;32;33122;-84
2023/05/05 09:26:38;;;;;;;;;;;;;;;25.13;33.94;100358.31;4460033;32;33061;-83
2023/05/05 09:29:06;;;;;;;;;;;;;;;25.58;33.50;100342.13;4449707;32;34174;-83
2023/05/05 09:31:36;;;;;;;;;;;;;;;24.84;34.18;100346.09;4451750;32;33982;-87
2023/05/05 09:34:14;;;;;;;;;;;;;;;24.82;36.06;100347.88;4461039;32;32343;-89
2023/05/05 09:36:43;;;;;;;;;;;;;;;24.22;34.84;100339.22;4460959;32;33651;-89
2023/05/05 09:39:10;;;;;;;;;;;;;;;25.16;34.48;100331.78;4455022;32;34728;-87
2023/05/05 09:41:42;;;;;;;;;;;;;;;24.03;34.33;100339.28;4449311;32;33982;-88
2023/05/05 09:44:11;;;;;;;;;;;;;;;25.24;33.79;100334.41;4451669;32;33925;-88
2023/05/05 09:46:48;;;;;;;;;;;;;;;25.33;33.47;100330.81;4462223;32;34036;-87
2023/05/05 09:49:19;;;;;;;;;;;;;;;25.37;35.04;100329.91;4443400;32;33646;-87
2023/05/05 09:51:46;;;;;;;;;;;;;;;24.06;34.11;100322.50;4445817;32;35128;-88
2023/05/05 09:54:23;;;;;;;;;;;;;;;25.11;33.18;100325.63;4449402;32;34927;-86
2023/05/05 09:56:51;;;;;;;;;;;;;;;25.09;36.26;100323.00;4458889;32;33169;-89
2023/05/05 09:59:18;;;;;;;;;;;;;;;25.36;34.92;100326.34;4434444;32;34108;-87
2023/05/05 10:01:46;;;;;;;;;;;;;;;24.93;34.89;100319.53;4453225;32;34224;-86
2023/05/05 10:04:23;;;;;;;;;;;;;;;25.34;33.25;100324.63;4446358;32;34097;-83
2023/05/05 10:06:51;;;;;;;;;;;;;;;23.60;34.70;100312.81;4457336;32;33425;-85
2023/05/05 10:09:18;;;;;;;;;;;;;;;24.73;34.27;100321.44;4456385;32;34270;-85
2023/05/05 10:11:46;;;;;;;;;;;;;;;24.05;34.70;100316.34;4444471;32;33907;-86
2023/05/05 10:14:16;;;;;;;;;;;;;;;25.07;34.67;100310.63;4460579;32;33940;-86
2023/05/05 10:16:48;;;;;;;;;;;;;;;25.57;33.28;100309.38;4461755;32;32655;-86
2023/05/05 10:19:16;;;;;;;;;;;;;;;24.53;33.93;100309.16;4454099;32;34202;-87
2023/05/05 10:21:45;;;;;;;;;;;;;;;23.57;34.88;100312.84;4453547;32;33797;-83
2023/05/05 10:24:15;;;;;;;;;;;;;;;23.41;36.82;100313.69;4451918;32;33916;-85
2023/05/05 10:26:42;;;;;;;;;;;;;;;22.95;37.31;100318.00;4439346;32;32962;-85
2023/05/05 10:29:12;;;;;;;;;;;;;;;22.42;37.17;100315.19;4454337;32;35116;-81
2023/05/05 10:31:45;;;;;;;;;;;;;;;23.25;38.06;100299.59;4460138;32;33460;-85
2023/05/05 10:34:26;;;;;;;;;;;;;;;23.43;36.41;100293.44;4444862;32;34100;-84
2023/05/05 10:36:54;;;;;;;;;;;;;;;23.04;36.14;100292.53;4459390;32;33473;-84
2023/05/05 10:39:21;;;;;;;;;;;;;;;23.67;37.41;100297.84;4453448;32;33882;-83
2023/05/05 10:41:48;;;;;;;;;;;;;;;23.41;38.10;100290.81;4464538;32;33987;-84
2023/05/05 10:44:16;;;;;;;;;;;;;;;23.35;39.05;100288.13;4448109;32;32316;-84
2023/05/05 10:46:43;;;;;;;;;;;;;;;23.33;37.37;100282.88;4454321;32;33426;-84
2023/05/05 10:49:25;;;;;;;;;;;;;;;23.33;36.95;100282.88;4457246;32;34479;-84
2023/05/05 10:52:03;;;;;;;;;;;;;;;23.10;36.77;100284.59;4450650;32;34482;-84
2023/05/05 10:54:31;;;;;;;;;;;;;;;24.56;34.58;100271.19;4453216;32;34117;-85
2023/05/05 10:57:01;;;;;;;;;;;;;;;25.06;32.21;100271.78;4456244;32;33681;-86
2023/05/05 10:59:34;;;;;;;;;;;;;;;25.07;32.36;100268.22;4458736;32;35156;-85
2023/05/05 11:02:17;;;;;;;;;;;;;;;24.98;33.59;100263.87;4454511;32;33062;-86
2023/05/05 11:05:01;;;;;;;;;;;;;;;25.52;32.79;100260.81;4454462;32;34321;-87
2023/05/05 11:07:29;;;;;;;;;;;;;;;25.45;32.38;100259.12;4454528;32;34505;-87
2023/05/05 11:09:57;;;;;;;;;;;;;;;25.19;33.85;100252.22;4453366;32;34328;-85
2023/05/05 11:12:24;;;;;;;;;;;;;;;25.57;33.38;100253.69;4455138;32;34007;-84
2023/05/05 11:15:11;;;;;;;;;;;;;;;26.51;32.19;100251.78;4448664;32;33915;-86
2023/05/05 11:17:48;;;;;;;;;;;;;;;25.80;33.67;100249.94;4465588;32;31706;-85
2023/05/05 11:20:15;;;;;;;;;;;;;;;25.53;34.27;100241.34;4446493;32;32515;-84
2023/05/05 11:23:01;;;;;;;;;;;;;;;25.33;33.15;100238.03;4451890;32;34248;-85
2023/05/05 11:25:31;;;;;;;;;;;;;;;26.27;33.57;100238.81;4455878;32;33696;-85
2023/05/05 11:28:05;;;;;;;;;;;;;;;25.76;34.36;100242.91;4457446;32;33187;-84
2023/05/05 11:30:33;;;;;;;;;;;;;;;24.80;34.24;100238.38;4455349;32;34851;-85
2023/05/05 11:33:19;;;;;;;;;;;;;;;24.86;35.28;100229.50;4452356;32;34238;-85
2023/05/05 11:35:57;;;;;;;;;;;;;;;24.33;35.58;100228.88;4457753;32;34168;-87
2023/05/05 11:38:47;;;;;;;;;;;;;;;23.65;37.30;100226.44;4453298;32;33990;-87
2023/05/05 11:41:27;;;;;;;;;;;;;;;22.70;37.99;100223.75;4456915;32;34274;-86
2023/05/05 11:44:15;;;;;;;;;;;;;;;23.33;36.67;100224.72;4434107;32;34095;-88
2023/05/05 11:49:54;;;;;;;;;;;;;;;23.41;36.58;100215.88;4455096;32;34519;-87
2023/05/05 11:52:25;;;;;;;;;;;;;;;23.98;35.11;100218.44;4431451;32;38304;-88
2023/05/05 11:54:52;;;;;;;;;;;;;;;24.93;34.53;100210.88;4459325;32;34081;-89
2023/05/05 11:57:28;;;;;;;;;;;;;;;25.38;33.69;100209.66;4465500;32;34980;-89
2023/05/05 12:00:00;;;;;;;;;;;;;;;24.45;37.06;100204.97;4432100;32;34652;-89
2023/05/05 12:02:28;;;;;;;;;;;;;;;24.61;36.40;100204.94;4455625;32;34909;-88